sensor_id;sensor_type;location;lat;lon;timestamp;temperature;humidity
7204;DHT22;3643;52.460;13.322;2024-01-27T00:01:38;5.20;99.90
7204;DHT22;3643;52.460;13.322;2024-01-27T00:04:06;5.00;99.90
7204;DHT22;3643;52.460;13.322;2024-01-27T00:06:36;5.00;99.90
7204;DHT22;3643;52.460;13.322;2024-01-27T00:09:04;5.00;99.90
7204;DHT22;3643;52.460;13.322;2024-01-27T00:11:33;5.00;99.90
7204;DHT22;3643;52.460;13.322;2024-01-27T00:14:01;5.00;99.90
7204;DHT22;3643;52.460;13.322;2024-01-27T00:16:30;5.00;99.90
7204;DHT22;3643;52.460;13.322;2024-01-27T00:18:58;5.00;99.90
7204;DHT22;3643;52.460;13.322;2024-01-27T00:21:26;5.10;99.90
7204;DHT22;3643;52.460;13.322;2024-01-27T00:23:56;5.00;99.90
7204;DHT22;3643;52.460;13.322;2024-01-27T00:26:27;5.00;99.90
7204;DHT22;3643;52.460;13.322;2024-01-27T00:28:56;4.90;99.90
7204;DHT22;3643;52.460;13.322;2024-01-27T00:31:24;4.90;99.90
7204;DHT22;3643;52.460;13.322;2024-01-27T00:33:52;4.90;99.90
7204;DHT22;3643;52.460;13.322;2024-01-27T00:36:20;5.00;99.90
7204;DHT22;3643;52.460;13.322;2024-01-27T00:38:48;5.10;99.90
7204;DHT22;3643;52.460;13.322;2024-01-27T00:41:18;4.90;99.90
7204;DHT22;3643;52.460;13.322;2024-01-27T00:43:46;5.10;99.90
7204;DHT22;3643;52.460;13.322;2024-01-27T00:46:15;5.10;99.90
7204;DHT22;3643;52.460;13.322;2024-01-27T00:48:43;5.00;99.90
7204;DHT22;3643;52.460;13.322;2024-01-27T00:51:11;5.00;99.90
7204;DHT22;3643;52.460;13.322;2024-01-27T00:53:39;4.90;99.90
7204;DHT22;3643;52.460;13.322;2024-01-27T00:56:07;4.90;99.90
7204;DHT22;3643;52.460;13.322;2024-01-27T00:58:37;4.90;99.90
7204;DHT22;3643;52.460;13.322;2024-01-27T01:01:05;4.90;99.90
7204;DHT22;3643;52.460;13.322;2024-01-27T01:03:33;4.80;99.90
7204;DHT22;3643;52.460;13.322;2024-01-27T01:06:01;4.80;99.90
7204;DHT22;3643;52.460;13.322;2024-01-27T01:08:31;4.90;99.90
7204;DHT22;3643;52.460;13.322;2024-01-27T01:10:59;4.90;99.90
7204;DHT22;3643;52.460;13.322;2024-01-27T01:13:27;4.80;99.90
7204;DHT22;3643;52.460;13.322;2024-01-27T01:15:56;4.80;99.90
7204;DHT22;3643;52.460;13.322;2024-01-27T01:18:24;4.70;99.90
7204;DHT22;3643;52.460;13.322;2024-01-27T01:20:52;4.60;99.90
7204;DHT22;3643;52.460;13.322;2024-01-27T01:23:20;4.80;99.90
7204;DHT22;3643;52.460;13.322;2024-01-27T01:25:48;4.50;99.90
7204;DHT22;3643;52.460;13.322;2024-01-27T01:28:16;4.50;99.90
7204;DHT22;3643;52.460;13.322;2024-01-27T01:30:44;4.60;99.90
7204;DHT22;3643;52.460;13.322;2024-01-27T01:33:14;4.50;99.90
7204;DHT22;3643;52.460;13.322;2024-01-27T01:35:42;4.40;99.90
7204;DHT22;3643;52.460;13.322;2024-01-27T01:38:11;4.40;99.90
7204;DHT22;3643;52.460;13.322;2024-01-27T01:40:39;4.40;99.90
7204;DHT22;3643;52.460;13.322;2024-01-27T01:43:09;4.40;99.90
7204;DHT22;3643;52.460;13.322;2024-01-27T01:45:38;4.50;99.90
7204;DHT22;3643;52.460;13.322;2024-01-27T01:48:07;4.50;99.90
7204;DHT22;3643;52.460;13.322;2024-01-27T01:50:37;4.40;99.90
7204;DHT22;3643;52.460;13.322;2024-01-27T01:53:05;4.40;99.90
7204;DHT22;3643;52.460;13.322;2024-01-27T01:55:34;4.40;99.90
7204;DHT22;3643;52.460;13.322;2024-01-27T01:58:02;4.70;99.90
7204;DHT22;3643;52.460;13.322;2024-01-27T02:00:31;4.50;99.90
7204;DHT22;3643;52.460;13.322;2024-01-27T02:02:59;4.50;99.90
7204;DHT22;3643;52.460;13.322;2024-01-27T02:05:28;4.60;99.90
7204;DHT22;3643;52.460;13.322;2024-01-27T02:07:57;4.60;99.90
7204;DHT22;3643;52.460;13.322;2024-01-27T02:10:26;4.60;99.90
7204;DHT22;3643;52.460;13.322;2024-01-27T02:12:57;4.60;99.90
7204;DHT22;3643;52.460;13.322;2024-01-27T02:15:25;4.60;99.90
7204;DHT22;3643;52.460;13.322;2024-01-27T02:17:53;4.60;99.90
7204;DHT22;3643;52.460;13.322;2024-01-27T02:20:21;4.60;99.90
7204;DHT22;3643;52.460;13.322;2024-01-27T02:22:49;4.70;99.90
7204;DHT22;3643;52.460;13.322;2024-01-27T02:25:19;4.70;99.90
7204;DHT22;3643;52.460;13.322;2024-01-27T02:27:47;4.70;99.90
7204;DHT22;3643;52.460;13.322;2024-01-27T02:30:15;4.80;99.90
7204;DHT22;3643;52.460;13.322;2024-01-27T02:32:43;4.90;99.90
7204;DHT22;3643;52.460;13.322;2024-01-27T02:35:11;4.80;99.90
7204;DHT22;3643;52.460;13.322;2024-01-27T02:37:41;5.10;99.90
7204;DHT22;3643;52.460;13.322;2024-01-27T02:40:09;4.90;99.90
7204;DHT22;3643;52.460;13.322;2024-01-27T02:42:39;4.90;99.90
7204;DHT22;3643;52.460;13.322;2024-01-27T02:45:09;4.90;99.90
7204;DHT22;3643;52.460;13.322;2024-01-27T02:47:37;4.80;99.90
7204;DHT22;3643;52.460;13.322;2024-01-27T02:50:06;4.90;99.90
7204;DHT22;3643;52.460;13.322;2024-01-27T02:52:35;4.80;99.90
7204;DHT22;3643;52.460;13.322;2024-01-27T02:55:03;4.80;99.90
7204;DHT22;3643;52.460;13.322;2024-01-27T02:57:32;4.80;99.90
7204;DHT22;3643;52.460;13.322;2024-01-27T03:00:01;4.80;99.90
7204;DHT22;3643;52.460;13.322;2024-01-27T03:02:29;4.80;99.90
7204;DHT22;3643;52.460;13.322;2024-01-27T03:04:57;4.80;99.90
7204;DHT22;3643;52.460;13.322;2024-01-27T03:07:25;4.70;99.90
7204;DHT22;3643;52.460;13.322;2024-01-27T03:09:53;4.80;99.90
7204;DHT22;3643;52.460;13.322;2024-01-27T03:12:21;4.70;99.90
7204;DHT22;3643;52.460;13.322;2024-01-27T03:14:50;4.70;99.90
7204;DHT22;3643;52.460;13.322;2024-01-27T03:17:20;4.60;99.90
7204;DHT22;3643;52.460;13.322;2024-01-27T03:19:48;4.50;99.90
7204;DHT22;3643;52.460;13.322;2024-01-27T03:22:16;4.40;99.90
7204;DHT22;3643;52.460;13.322;2024-01-27T03:24:44;4.40;99.90
7204;DHT22;3643;52.460;13.322;2024-01-27T03:27:12;4.30;99.90
7204;DHT22;3643;52.460;13.322;2024-01-27T03:29:40;4.30;99.90
7204;DHT22;3643;52.460;13.322;2024-01-27T03:32:08;4.20;99.90
7204;DHT22;3643;52.460;13.322;2024-01-27T03:34:43;4.20;99.90
7204;DHT22;3643;52.460;13.322;2024-01-27T03:37:11;4.10;99.90
7204;DHT22;3643;52.460;13.322;2024-01-27T03:39:41;4.10;99.90
7204;DHT22;3643;52.460;13.322;2024-01-27T03:42:09;4.00;99.90
7204;DHT22;3643;52.460;13.322;2024-01-27T03:44:37;3.90;99.90
7204;DHT22;3643;52.460;13.322;2024-01-27T03:47:05;3.90;99.90
7204;DHT22;3643;52.460;13.322;2024-01-27T03:49:33;3.80;99.90
7204;DHT22;3643;52.460;13.322;2024-01-27T03:52:03;3.80;99.90
7204;DHT22;3643;52.460;13.322;2024-01-27T03:54:31;3.70;99.90
7204;DHT22;3643;52.460;13.322;2024-01-27T03:57:00;3.70;99.90
7204;DHT22;3643;52.460;13.322;2024-01-27T03:59:28;3.70;99.90
7204;DHT22;3643;52.460;13.322;2024-01-27T04:01:56;3.80;99.90
7204;DHT22;3643;52.460;13.322;2024-01-27T04:04:24;3.70;99.90
7204;DHT22;3643;52.460;13.322;2024-01-27T04:06:52;3.80;99.90
7204;DHT22;3643;52.460;13.322;2024-01-27T04:09:22;3.70;99.90
7204;DHT22;3643;52.460;13.322;2024-01-27T04:11:51;3.70;99.90
7204;DHT22;3643;52.460;13.322;2024-01-27T04:14:19;3.80;99.90
7204;DHT22;3643;52.460;13.322;2024-01-27T04:16:47;3.70;99.90
7204;DHT22;3643;52.460;13.322;2024-01-27T04:19:15;3.70;99.90
7204;DHT22;3643;52.460;13.322;2024-01-27T04:21:43;3.70;99.90
7204;DHT22;3643;52.460;13.322;2024-01-27T04:24:11;3.70;99.90
7204;DHT22;3643;52.460;13.322;2024-01-27T04:26:41;3.70;99.90
7204;DHT22;3643;52.460;13.322;2024-01-27T04:29:09;3.60;99.90
7204;DHT22;3643;52.460;13.322;2024-01-27T04:31:41;3.60;99.90
7204;DHT22;3643;52.460;13.322;2024-01-27T04:34:09;3.60;99.90
7204;DHT22;3643;52.460;13.322;2024-01-27T04:36:38;3.60;99.90
7204;DHT22;3643;52.460;13.322;2024-01-27T04:39:06;3.50;99.90
7204;DHT22;3643;52.460;13.322;2024-01-27T04:41:34;3.50;99.90
7204;DHT22;3643;52.460;13.322;2024-01-27T04:44:03;3.50;99.90
7204;DHT22;3643;52.460;13.322;2024-01-27T04:46:31;3.50;99.90
7204;DHT22;3643;52.460;13.322;2024-01-27T04:48:59;3.60;99.90
7204;DHT22;3643;52.460;13.322;2024-01-27T04:51:28;3.50;99.90
7204;DHT22;3643;52.460;13.322;2024-01-27T04:53:56;3.60;99.90
7204;DHT22;3643;52.460;13.322;2024-01-27T04:56:24;3.60;99.90
7204;DHT22;3643;52.460;13.322;2024-01-27T04:58:52;3.60;99.90
7204;DHT22;3643;52.460;13.322;2024-01-27T05:01:21;3.60;99.90
7204;DHT22;3643;52.460;13.322;2024-01-27T05:03:49;3.70;99.90
7204;DHT22;3643;52.460;13.322;2024-01-27T05:06:18;3.80;99.90
7204;DHT22;3643;52.460;13.322;2024-01-27T05:08:46;3.90;99.90
7204;DHT22;3643;52.460;13.322;2024-01-27T05:11:15;4.00;99.90
7204;DHT22;3643;52.460;13.322;2024-01-27T05:13:44;4.10;99.90
7204;DHT22;3643;52.460;13.322;2024-01-27T05:16:12;4.10;99.90
7204;DHT22;3643;52.460;13.322;2024-01-27T05:18:41;4.20;99.90
7204;DHT22;3643;52.460;13.322;2024-01-27T05:21:09;4.30;99.90
7204;DHT22;3643;52.460;13.322;2024-01-27T05:23:37;4.30;99.90
7204;DHT22;3643;52.460;13.322;2024-01-27T05:26:05;4.30;99.90
7204;DHT22;3643;52.460;13.322;2024-01-27T05:28:33;4.30;99.90
7204;DHT22;3643;52.460;13.322;2024-01-27T05:31:02;4.40;99.90
7204;DHT22;3643;52.460;13.322;2024-01-27T05:33:30;4.40;99.90
7204;DHT22;3643;52.460;13.322;2024-01-27T05:36:00;4.40;99.90
7204;DHT22;3643;52.460;13.322;2024-01-27T05:38:28;4.40;99.90
7204;DHT22;3643;52.460;13.322;2024-01-27T05:41:00;4.40;99.90
7204;DHT22;3643;52.460;13.322;2024-01-27T05:43:28;4.50;99.90
7204;DHT22;3643;52.460;13.322;2024-01-27T05:45:56;4.50;99.90
7204;DHT22;3643;52.460;13.322;2024-01-27T05:48:24;4.50;99.90
7204;DHT22;3643;52.460;13.322;2024-01-27T05:50:56;4.50;99.90
7204;DHT22;3643;52.460;13.322;2024-01-27T05:53:26;4.50;99.90
7204;DHT22;3643;52.460;13.322;2024-01-27T05:55:56;4.40;99.90
7204;DHT22;3643;52.460;13.322;2024-01-27T05:58:24;4.40;99.90
7204;DHT22;3643;52.460;13.322;2024-01-27T06:00:52;4.40;99.90
7204;DHT22;3643;52.460;13.322;2024-01-27T06:03:20;4.40;99.90
7204;DHT22;3643;52.460;13.322;2024-01-27T06:05:48;4.40;99.90
7204;DHT22;3643;52.460;13.322;2024-01-27T06:08:17;4.50;99.90
7204;DHT22;3643;52.460;13.322;2024-01-27T06:10:47;4.50;99.90
7204;DHT22;3643;52.460;13.322;2024-01-27T06:13:15;4.50;99.90
7204;DHT22;3643;52.460;13.322;2024-01-27T06:15:44;4.60;99.90
7204;DHT22;3643;52.460;13.322;2024-01-27T06:18:11;4.60;99.90
7204;DHT22;3643;52.460;13.322;2024-01-27T06:20:40;4.60;99.90
7204;DHT22;3643;52.460;13.322;2024-01-27T06:23:08;4.60;99.90
7204;DHT22;3643;52.460;13.322;2024-01-27T06:25:36;4.70;99.90
7204;DHT22;3643;52.460;13.322;2024-01-27T06:28:05;4.90;99.90
7204;DHT22;3643;52.460;13.322;2024-01-27T06:30:33;4.80;99.90
7204;DHT22;3643;52.460;13.322;2024-01-27T06:33:01;4.80;99.90
7204;DHT22;3643;52.460;13.322;2024-01-27T06:35:29;4.80;99.90
7204;DHT22;3643;52.460;13.322;2024-01-27T06:37:58;4.80;99.90
7204;DHT22;3643;52.460;13.322;2024-01-27T06:40:26;4.80;99.90
7204;DHT22;3643;52.460;13.322;2024-01-27T06:42:54;4.80;99.90
7204;DHT22;3643;52.460;13.322;2024-01-27T06:45:23;4.70;99.90
7204;DHT22;3643;52.460;13.322;2024-01-27T06:47:51;4.70;99.90
7204;DHT22;3643;52.460;13.322;2024-01-27T06:50:19;4.60;99.90
7204;DHT22;3643;52.460;13.322;2024-01-27T06:52:47;4.60;99.90
7204;DHT22;3643;52.460;13.322;2024-01-27T06:55:15;4.60;99.90
7204;DHT22;3643;52.460;13.322;2024-01-27T06:57:43;4.60;99.90
7204;DHT22;3643;52.460;13.322;2024-01-27T07:00:12;4.70;99.90
7204;DHT22;3643;52.460;13.322;2024-01-27T07:02:43;4.60;99.90
7204;DHT22;3643;52.460;13.322;2024-01-27T07:05:10;4.60;99.90
7204;DHT22;3643;52.460;13.322;2024-01-27T07:07:41;4.70;99.90
7204;DHT22;3643;52.460;13.322;2024-01-27T07:10:09;4.80;99.90
7204;DHT22;3643;52.460;13.322;2024-01-27T07:12:37;4.80;99.90
7204;DHT22;3643;52.460;13.322;2024-01-27T07:15:06;4.80;99.90
7204;DHT22;3643;52.460;13.322;2024-01-27T07:17:34;4.80;99.90
7204;DHT22;3643;52.460;13.322;2024-01-27T07:20:05;4.80;99.90
7204;DHT22;3643;52.460;13.322;2024-01-27T07:22:33;4.80;99.90
7204;DHT22;3643;52.460;13.322;2024-01-27T07:25:01;4.80;99.90
7204;DHT22;3643;52.460;13.322;2024-01-27T07:27:30;4.90;99.90
7204;DHT22;3643;52.460;13.322;2024-01-27T07:29:58;4.90;99.90
7204;DHT22;3643;52.460;13.322;2024-01-27T07:32:26;4.90;99.90
7204;DHT22;3643;52.460;13.322;2024-01-27T07:34:54;4.90;99.90
7204;DHT22;3643;52.460;13.322;2024-01-27T07:37:24;4.90;99.90
7204;DHT22;3643;52.460;13.322;2024-01-27T07:39:52;4.90;99.90
7204;DHT22;3643;52.460;13.322;2024-01-27T07:42:19;4.90;99.90
7204;DHT22;3643;52.460;13.322;2024-01-27T07:44:47;5.00;99.90
7204;DHT22;3643;52.460;13.322;2024-01-27T07:47:16;5.00;99.90
7204;DHT22;3643;52.460;13.322;2024-01-27T07:49:44;5.00;99.90
7204;DHT22;3643;52.460;13.322;2024-01-27T07:52:12;5.10;99.90
7204;DHT22;3643;52.460;13.322;2024-01-27T07:54:41;5.10;99.90
7204;DHT22;3643;52.460;13.322;2024-01-27T07:57:10;5.10;99.90
7204;DHT22;3643;52.460;13.322;2024-01-27T07:59:39;5.10;99.90
7204;DHT22;3643;52.460;13.322;2024-01-27T08:02:06;5.10;99.90
7204;DHT22;3643;52.460;13.322;2024-01-27T08:04:34;5.30;99.90
7204;DHT22;3643;52.460;13.322;2024-01-27T08:07:03;5.30;99.90
7204;DHT22;3643;52.460;13.322;2024-01-27T08:09:36;5.20;99.90
7204;DHT22;3643;52.460;13.322;2024-01-27T08:12:07;5.30;99.90
7204;DHT22;3643;52.460;13.322;2024-01-27T08:14:35;5.30;99.90
7204;DHT22;3643;52.460;13.322;2024-01-27T08:17:03;5.40;99.90
7204;DHT22;3643;52.460;13.322;2024-01-27T08:19:32;5.40;99.90
7204;DHT22;3643;52.460;13.322;2024-01-27T08:22:00;5.40;99.90
7204;DHT22;3643;52.460;13.322;2024-01-27T08:24:28;5.40;99.90
7204;DHT22;3643;52.460;13.322;2024-01-27T08:26:57;5.50;99.90
7204;DHT22;3643;52.460;13.322;2024-01-27T08:29:28;5.50;99.90
7204;DHT22;3643;52.460;13.322;2024-01-27T08:31:56;5.60;99.90
7204;DHT22;3643;52.460;13.322;2024-01-27T08:34:25;5.60;99.90
7204;DHT22;3643;52.460;13.322;2024-01-27T08:36:53;5.60;99.90
7204;DHT22;3643;52.460;13.322;2024-01-27T08:39:25;5.60;99.90
7204;DHT22;3643;52.460;13.322;2024-01-27T08:41:53;5.70;99.90
7204;DHT22;3643;52.460;13.322;2024-01-27T08:44:21;5.60;99.90
7204;DHT22;3643;52.460;13.322;2024-01-27T08:46:51;5.70;99.90
7204;DHT22;3643;52.460;13.322;2024-01-27T08:49:19;5.80;99.90
7204;DHT22;3643;52.460;13.322;2024-01-27T08:51:47;5.80;99.90
7204;DHT22;3643;52.460;13.322;2024-01-27T08:54:16;5.80;99.90
7204;DHT22;3643;52.460;13.322;2024-01-27T08:56:44;5.80;99.90
7204;DHT22;3643;52.460;13.322;2024-01-27T08:59:13;5.90;99.90
7204;DHT22;3643;52.460;13.322;2024-01-27T09:01:41;5.90;99.90
7204;DHT22;3643;52.460;13.322;2024-01-27T09:04:11;6.00;99.90
7204;DHT22;3643;52.460;13.322;2024-01-27T09:06:39;6.00;99.90
7204;DHT22;3643;52.460;13.322;2024-01-27T09:09:07;6.10;99.90
7204;DHT22;3643;52.460;13.322;2024-01-27T09:11:35;6.40;99.90
7204;DHT22;3643;52.460;13.322;2024-01-27T09:14:03;6.10;99.90
7204;DHT22;3643;52.460;13.322;2024-01-27T09:16:34;6.10;99.90
7204;DHT22;3643;52.460;13.322;2024-01-27T09:19:02;6.10;99.90
7204;DHT22;3643;52.460;13.322;2024-01-27T09:21:32;6.10;99.90
7204;DHT22;3643;52.460;13.322;2024-01-27T09:24:00;6.10;99.90
7204;DHT22;3643;52.460;13.322;2024-01-27T09:26:29;6.10;99.90
7204;DHT22;3643;52.460;13.322;2024-01-27T09:28:57;6.10;99.90
7204;DHT22;3643;52.460;13.322;2024-01-27T09:31:25;6.10;99.90
7204;DHT22;3643;52.460;13.322;2024-01-27T09:33:54;6.10;99.90
7204;DHT22;3643;52.460;13.322;2024-01-27T09:36:23;6.20;99.90
7204;DHT22;3643;52.460;13.322;2024-01-27T09:38:52;6.40;99.90
7204;DHT22;3643;52.460;13.322;2024-01-27T09:41:21;6.30;99.90
7204;DHT22;3643;52.460;13.322;2024-01-27T09:43:49;6.30;99.90
7204;DHT22;3643;52.460;13.322;2024-01-27T09:46:17;6.30;99.90
7204;DHT22;3643;52.460;13.322;2024-01-27T09:52:32;6.40;99.90
7204;DHT22;3643;52.460;13.322;2024-01-27T09:55:03;6.50;99.90
7204;DHT22;3643;52.460;13.322;2024-01-27T09:57:31;6.50;99.90
7204;DHT22;3643;52.460;13.322;2024-01-27T10:00:00;6.60;99.90
7204;DHT22;3643;52.460;13.322;2024-01-27T10:02:29;6.60;99.90
7204;DHT22;3643;52.460;13.322;2024-01-27T10:04:58;6.60;99.90
7204;DHT22;3643;52.460;13.322;2024-01-27T10:07:26;6.60;99.90
7204;DHT22;3643;52.460;13.322;2024-01-27T10:09:54;7.00;99.90
7204;DHT22;3643;52.460;13.322;2024-01-27T10:12:26;6.60;99.90
7204;DHT22;3643;52.460;13.322;2024-01-27T10:14:54;6.70;99.90
7204;DHT22;3643;52.460;13.322;2024-01-27T10:17:25;6.70;99.90
7204;DHT22;3643;52.460;13.322;2024-01-27T10:19:59;6.60;99.90
7204;DHT22;3643;52.460;13.322;2024-01-27T10:22:28;6.60;99.90
7204;DHT22;3643;52.460;13.322;2024-01-27T10:24:56;6.70;99.90
7204;DHT22;3643;52.460;13.322;2024-01-27T10:27:25;6.70;99.90
7204;DHT22;3643;52.460;13.322;2024-01-27T10:29:54;6.70;99.90
7204;DHT22;3643;52.460;13.322;2024-01-27T10:32:22;6.80;99.90
7204;DHT22;3643;52.460;13.322;2024-01-27T10:35:01;6.80;99.90
7204;DHT22;3643;52.460;13.322;2024-01-27T10:37:29;6.90;99.90
7204;DHT22;3643;52.460;13.322;2024-01-27T10:40:01;6.90;99.90
7204;DHT22;3643;52.460;13.322;2024-01-27T10:42:31;7.10;99.90
7204;DHT22;3643;52.460;13.322;2024-01-27T10:45:00;6.90;99.90
7204;DHT22;3643;52.460;13.322;2024-01-27T10:47:30;7.00;99.90
7204;DHT22;3643;52.460;13.322;2024-01-27T10:49:59;7.10;99.90
7204;DHT22;3643;52.460;13.322;2024-01-27T10:52:31;7.10;99.90
7204;DHT22;3643;52.460;13.322;2024-01-27T10:55:00;7.30;99.90
7204;DHT22;3643;52.460;13.322;2024-01-27T10:57:32;7.10;99.90
7204;DHT22;3643;52.460;13.322;2024-01-27T11:00:03;7.00;99.90
7204;DHT22;3643;52.460;13.322;2024-01-27T11:02:34;7.00;99.90
7204;DHT22;3643;52.460;13.322;2024-01-27T11:05:07;7.20;99.90
7204;DHT22;3643;52.460;13.322;2024-01-27T11:07:35;7.10;99.90
7204;DHT22;3643;52.460;13.322;2024-01-27T11:10:05;7.20;99.90
7204;DHT22;3643;52.460;13.322;2024-01-27T11:12:36;7.20;99.90
7204;DHT22;3643;52.460;13.322;2024-01-27T11:15:05;7.30;99.90
7204;DHT22;3643;52.460;13.322;2024-01-27T11:17:39;7.30;99.90
7204;DHT22;3643;52.460;13.322;2024-01-27T11:20:08;7.30;99.90
7204;DHT22;3643;52.460;13.322;2024-01-27T11:22:38;7.30;99.90
7204;DHT22;3643;52.460;13.322;2024-01-27T11:25:08;7.30;99.90
7204;DHT22;3643;52.460;13.322;2024-01-27T11:27:38;7.30;99.90
7204;DHT22;3643;52.460;13.322;2024-01-27T11:30:24;7.30;99.90
7204;DHT22;3643;52.460;13.322;2024-01-27T11:32:52;7.20;99.90
7204;DHT22;3643;52.460;13.322;2024-01-27T11:35:20;7.20;99.90
7204;DHT22;3643;52.460;13.322;2024-01-27T11:37:49;7.10;99.90
7204;DHT22;3643;52.460;13.322;2024-01-27T11:40:17;7.20;99.90
7204;DHT22;3643;52.460;13.322;2024-01-27T11:42:55;7.10;99.90
7204;DHT22;3643;52.460;13.322;2024-01-27T11:45:23;7.00;99.90
7204;DHT22;3643;52.460;13.322;2024-01-27T11:47:51;6.90;99.90
7204;DHT22;3643;52.460;13.322;2024-01-27T11:50:20;7.20;99.90
7204;DHT22;3643;52.460;13.322;2024-01-27T11:52:48;6.80;99.90
7204;DHT22;3643;52.460;13.322;2024-01-27T11:55:16;6.80;99.90
7204;DHT22;3643;52.460;13.322;2024-01-27T11:57:45;6.80;99.90
7204;DHT22;3643;52.460;13.322;2024-01-27T12:00:15;6.80;99.90
7204;DHT22;3643;52.460;13.322;2024-01-27T12:02:44;6.80;99.90
7204;DHT22;3643;52.460;13.322;2024-01-27T12:05:12;6.90;99.90
7204;DHT22;3643;52.460;13.322;2024-01-27T12:07:42;6.90;99.90
7204;DHT22;3643;52.460;13.322;2024-01-27T12:10:10;7.00;99.90
7204;DHT22;3643;52.460;13.322;2024-01-27T12:12:38;7.00;99.90
7204;DHT22;3643;52.460;13.322;2024-01-27T12:15:07;7.00;99.90
7204;DHT22;3643;52.460;13.322;2024-01-27T12:17:36;7.00;99.90
7204;DHT22;3643;52.460;13.322;2024-01-27T12:20:14;7.10;99.90
7204;DHT22;3643;52.460;13.322;2024-01-27T12:22:43;7.10;99.90
7204;DHT22;3643;52.460;13.322;2024-01-27T12:25:12;7.10;99.90
7204;DHT22;3643;52.460;13.322;2024-01-27T12:27:42;7.10;99.90
7204;DHT22;3643;52.460;13.322;2024-01-27T12:30:10;7.20;99.90
7204;DHT22;3643;52.460;13.322;2024-01-27T12:32:40;7.20;99.90
7204;DHT22;3643;52.460;13.322;2024-01-27T12:35:09;7.10;99.90
7204;DHT22;3643;52.460;13.322;2024-01-27T12:37:37;7.10;99.90
7204;DHT22;3643;52.460;13.322;2024-01-27T12:40:17;7.10;99.90
7204;DHT22;3643;52.460;13.322;2024-01-27T12:42:50;7.10;99.90
7204;DHT22;3643;52.460;13.322;2024-01-27T12:45:18;7.20;99.90
7204;DHT22;3643;52.460;13.322;2024-01-27T12:47:48;7.20;99.90
7204;DHT22;3643;52.460;13.322;2024-01-27T12:50:16;7.20;99.90
7204;DHT22;3643;52.460;13.322;2024-01-27T12:52:44;7.20;99.90
7204;DHT22;3643;52.460;13.322;2024-01-27T12:55:12;7.10;99.90
7204;DHT22;3643;52.460;13.322;2024-01-27T12:57:41;7.10;99.90
7204;DHT22;3643;52.460;13.322;2024-01-27T13:00:10;7.10;99.90
7204;DHT22;3643;52.460;13.322;2024-01-27T13:02:39;7.00;99.90
7204;DHT22;3643;52.460;13.322;2024-01-27T13:05:09;7.00;99.90
7204;DHT22;3643;52.460;13.322;2024-01-27T13:07:37;7.00;99.90
7204;DHT22;3643;52.460;13.322;2024-01-27T13:10:06;7.10;99.90
7204;DHT22;3643;52.460;13.322;2024-01-27T13:12:35;7.10;99.90
7204;DHT22;3643;52.460;13.322;2024-01-27T13:15:04;7.10;99.90
7204;DHT22;3643;52.460;13.322;2024-01-27T13:17:32;7.10;99.90
7204;DHT22;3643;52.460;13.322;2024-01-27T13:20:00;7.20;99.90
7204;DHT22;3643;52.460;13.322;2024-01-27T13:22:30;7.10;99.90
7204;DHT22;3643;52.460;13.322;2024-01-27T13:24:58;7.10;99.90
7204;DHT22;3643;52.460;13.322;2024-01-27T13:27:31;7.00;99.90
7204;DHT22;3643;52.460;13.322;2024-01-27T13:30:01;6.90;99.90
7204;DHT22;3643;52.460;13.322;2024-01-27T13:32:29;6.90;99.90
7204;DHT22;3643;52.460;13.322;2024-01-27T13:34:57;6.80;99.90
7204;DHT22;3643;52.460;13.322;2024-01-27T13:37:25;6.70;99.90
7204;DHT22;3643;52.460;13.322;2024-01-27T13:39:55;6.60;99.90
7204;DHT22;3643;52.460;13.322;2024-01-27T13:42:23;6.50;99.90
7204;DHT22;3643;52.460;13.322;2024-01-27T13:44:51;6.50;99.90
7204;DHT22;3643;52.460;13.322;2024-01-27T13:47:20;6.50;99.90
7204;DHT22;3643;52.460;13.322;2024-01-27T13:49:48;6.50;99.90
7204;DHT22;3643;52.460;13.322;2024-01-27T13:52:17;6.50;99.90
7204;DHT22;3643;52.460;13.322;2024-01-27T13:54:45;6.70;99.90
7204;DHT22;3643;52.460;13.322;2024-01-27T13:57:14;6.60;99.90
7204;DHT22;3643;52.460;13.322;2024-01-27T13:59:43;6.70;99.90
7204;DHT22;3643;52.460;13.322;2024-01-27T14:02:11;6.70;99.90
7204;DHT22;3643;52.460;13.322;2024-01-27T14:04:39;6.70;99.90
7204;DHT22;3643;52.460;13.322;2024-01-27T14:07:07;6.70;99.90
7204;DHT22;3643;52.460;13.322;2024-01-27T14:09:36;6.70;99.90
7204;DHT22;3643;52.460;13.322;2024-01-27T14:12:06;6.70;99.90
7204;DHT22;3643;52.460;13.322;2024-01-27T14:14:35;6.70;99.90
7204;DHT22;3643;52.460;13.322;2024-01-27T14:17:07;6.70;99.90
7204;DHT22;3643;52.460;13.322;2024-01-27T14:19:34;6.70;99.90
7204;DHT22;3643;52.460;13.322;2024-01-27T14:22:04;6.70;99.90
7204;DHT22;3643;52.460;13.322;2024-01-27T14:24:33;6.70;99.90
7204;DHT22;3643;52.460;13.322;2024-01-27T14:27:01;6.70;99.90
7204;DHT22;3643;52.460;13.322;2024-01-27T14:29:31;6.70;99.90
7204;DHT22;3643;52.460;13.322;2024-01-27T14:32:03;6.70;99.90
7204;DHT22;3643;52.460;13.322;2024-01-27T14:34:31;6.80;99.90
7204;DHT22;3643;52.460;13.322;2024-01-27T14:37:00;6.80;99.90
7204;DHT22;3643;52.460;13.322;2024-01-27T14:39:29;6.70;99.90
7204;DHT22;3643;52.460;13.322;2024-01-27T14:41:57;6.70;99.90
7204;DHT22;3643;52.460;13.322;2024-01-27T14:44:26;6.70;99.90
7204;DHT22;3643;52.460;13.322;2024-01-27T14:46:54;6.70;99.90
7204;DHT22;3643;52.460;13.322;2024-01-27T14:49:23;6.60;99.90
7204;DHT22;3643;52.460;13.322;2024-01-27T14:51:51;6.70;99.90
7204;DHT22;3643;52.460;13.322;2024-01-27T14:54:19;6.80;99.90
7204;DHT22;3643;52.460;13.322;2024-01-27T14:56:47;6.70;99.90
7204;DHT22;3643;52.460;13.322;2024-01-27T14:59:15;7.40;99.90
7204;DHT22;3643;52.460;13.322;2024-01-27T15:01:43;6.60;99.90
7204;DHT22;3643;52.460;13.322;2024-01-27T15:04:13;6.60;99.90
7204;DHT22;3643;52.460;13.322;2024-01-27T15:06:43;6.50;99.90
7204;DHT22;3643;52.460;13.322;2024-01-27T15:09:13;6.50;99.90
7204;DHT22;3643;52.460;13.322;2024-01-27T15:11:42;6.40;99.90
7204;DHT22;3643;52.460;13.322;2024-01-27T15:14:10;6.40;99.90
7204;DHT22;3643;52.460;13.322;2024-01-27T15:16:39;6.30;99.90
7204;DHT22;3643;52.460;13.322;2024-01-27T15:19:07;6.30;99.90
7204;DHT22;3643;52.460;13.322;2024-01-27T15:21:37;6.20;99.90
7204;DHT22;3643;52.460;13.322;2024-01-27T15:24:07;6.20;99.90
7204;DHT22;3643;52.460;13.322;2024-01-27T15:26:36;6.10;99.90
7204;DHT22;3643;52.460;13.322;2024-01-27T15:29:04;6.00;99.90
7204;DHT22;3643;52.460;13.322;2024-01-27T15:31:32;6.00;99.90
7204;DHT22;3643;52.460;13.322;2024-01-27T15:34:00;5.90;99.90
7204;DHT22;3643;52.460;13.322;2024-01-27T15:36:29;5.90;99.90
7204;DHT22;3643;52.460;13.322;2024-01-27T15:38:57;5.80;99.90
7204;DHT22;3643;52.460;13.322;2024-01-27T15:41:26;5.70;99.90
7204;DHT22;3643;52.460;13.322;2024-01-27T15:43:54;5.90;99.90
7204;DHT22;3643;52.460;13.322;2024-01-27T15:46:24;5.70;99.90
7204;DHT22;3643;52.460;13.322;2024-01-27T15:48:52;5.60;99.90
7204;DHT22;3643;52.460;13.322;2024-01-27T15:51:20;5.60;99.90
7204;DHT22;3643;52.460;13.322;2024-01-27T15:53:48;5.50;99.90
7204;DHT22;3643;52.460;13.322;2024-01-27T15:56:16;5.40;99.90
7204;DHT22;3643;52.460;13.322;2024-01-27T15:58:45;5.30;99.90
7204;DHT22;3643;52.460;13.322;2024-01-27T16:01:13;5.20;99.90
7204;DHT22;3643;52.460;13.322;2024-01-27T16:03:42;5.30;99.90
7204;DHT22;3643;52.460;13.322;2024-01-27T16:06:10;5.10;99.90
7204;DHT22;3643;52.460;13.322;2024-01-27T16:08:38;5.00;99.90
7204;DHT22;3643;52.460;13.322;2024-01-27T16:11:06;5.00;99.90
7204;DHT22;3643;52.460;13.322;2024-01-27T16:13:34;4.90;99.90
7204;DHT22;3643;52.460;13.322;2024-01-27T16:16:04;4.90;99.90